Last 6 Hours

AM-Scott Top 8120'

15 Minute Data | America/Los_Angeles
as of 9/4/26 12:10 AM PDT
Date & Time Temp (°F) RH (%) Dew Pt (°F) Wet Bulb (°F) Wind Dir (°) Wind Spd (mph) Wind Gust (mph) WindChill (°F) Daily Min Temp (°F) Daily Max Temp (°F)
9/4/26 - 0000 41.1 97 40.3 40.7 N | 351 19.8 35.7 34.4 39.3 44.6
9/3/26 - 2345 40.9 97 40.1 40.5 NNW | 348 21.2 34.4 31.4 39.3 44.6
9/3/26 - 2330 41.0 97 40.2 40.5 NNW | 340 23.2 37.9 29.4 39.3 44.6
9/3/26 - 2315 41.0 97 40.1 40.5 NNW | 344 23.8 37.6 29.8 39.3 44.6
9/3/26 - 2300 41.3 97 40.4 40.8 NNW | 347 23.5 37.6 30.6 39.3 44.6
9/3/26 - 2245 41.1 97 40.2 40.6 NNW | 342 23.6 39.0 31.0 39.3 44.6
9/3/26 - 2230 41.1 97 40.2 40.6 NNW | 345 22.9 35.6 32.6 39.3 44.6
9/3/26 - 2215 40.9 97 40.1 40.5 NNW | 338 22.9 36.3 30.2 39.3 44.6
9/3/26 - 2200 40.8 97 40.0 40.4 NNW | 341 22.2 34.9 30.3 39.3 44.6
9/3/26 - 2145 40.8 97 40.0 40.4 NNW | 346 20.0 33.6 30.3 39.3 44.6
9/3/26 - 2130 41.1 96 40.1 40.5 NNW | 327 23.9 40.0 32.0 39.3 44.6
9/3/26 - 2115 40.8 96 39.8 40.2 NNW | 343 23.2 33.5 31.0 39.3 44.6
9/3/26 - 2100 40.8 96 39.7 40.3 NNW | 348 21.9 35.1 30.4 39.3 44.6
9/3/26 - 2045 40.8 95 39.5 40.2 NNW | 343 21.9 39.7 30.6 39.3 44.6
9/3/26 - 2030 41.1 93 39.4 40.2 NNW | 345 23.6 39.4 30.2 39.3 44.6
9/3/26 - 2015 40.8 95 39.4 40.1 NNW | 338 21.9 34.3 28.9 39.3 44.6
9/3/26 - 2000 40.8 95 39.5 40.2 N | 352 21.7 35.1 31.8 39.3 44.6
9/3/26 - 1945 41.3 92 39.1 40.2 NNW | 342 20.6 38.3 32.4 39.3 44.6
9/3/26 - 1930 41.3 92 39.2 40.2 NNW | 343 19.9 31.6 32.6 39.3 44.6
9/3/26 - 1915 40.9 94 39.2 40.0 NNW | 345 20.3 34.8 32.7 39.3 44.6
9/3/26 - 1900 41.0 92 39.0 40.0 N | 352 23.8 37.7 32.7 39.3 44.6
9/3/26 - 1845 40.9 93 39.1 39.9 N | 0 22.8 34.6 31.5 39.3 44.6
9/3/26 - 1830 41.1 93 39.1 40.0 N | 0 22.1 38.8 30.9 39.3 44.6
9/3/26 - 1815 40.9 93 39.1 39.9 N | 359 20.6 33.7 30.7 39.3 44.6
Max 41.3 97 40.4 40.8 - 23.9 40.0 34.4 39.3 44.6
Avg 41.0 95 39.7 40.3 - 22.1 36.2 31.2 - -
Min 40.8 92 39.0 39.9 - 19.8 31.6 28.9 39.3 44.6